Altona, Illinois
Current Conditions -  °F | °C
As of 2:55 AM on Wednesday 26 Nov 2014 (Local Time) from KGBG Reporting Station
Clear Clear  
Wind Chill: 11°   Ceiling: Unl
Heat Index: 20°   Visibility: 10mi
Dew Point: 19°   Wind: 7mph
Humidity: 96%   Direction: 100°E
Pressure: 30.09"   Gusts: NA
Location:  41.11°N, 90.16°W
Report Text: KGBG 260855Z AUTO 10006KT 10SM CLR M06/M07 A3009 RMK AO2 T10651071
Loading
Personal Weather Stations






























Interactive Weather Map New forecast layout! Learn more

10-Day Weather Forecast

Advertisements
Track Severe Weather on mobile